sensor_id;sensor_type;location;lat;lon;timestamp;pressure;altitude;pressure_sealevel;temperature;humidity
10127;BME280;13080;42.608;23.362;2022-11-15T00:00:06;93242.06;;;2.65;98.31
10127;BME280;13080;42.608;23.362;2022-11-15T00:02:33;93236.78;;;2.65;98.31
10127;BME280;13080;42.608;23.362;2022-11-15T00:05:00;93238.13;;;2.57;98.64
10127;BME280;13080;42.608;23.362;2022-11-15T00:07:27;93242.34;;;2.53;99.14
10127;BME280;13080;42.608;23.362;2022-11-15T00:09:55;93242.34;;;2.53;99.13
10127;BME280;13080;42.608;23.362;2022-11-15T00:12:22;93237.63;;;2.50;99.19
10127;BME280;13080;42.608;23.362;2022-11-15T00:14:48;93234.44;;;2.53;99.38
10127;BME280;13080;42.608;23.362;2022-11-15T00:17:15;93231.84;;;2.48;99.57
10127;BME280;13080;42.608;23.362;2022-11-15T00:19:42;93229.19;;;2.48;99.94
10127;BME280;13080;42.608;23.362;2022-11-15T00:22:08;93232.91;;;2.47;99.69
10127;BME280;13080;42.608;23.362;2022-11-15T00:24:35;93235.00;;;2.45;99.85
10127;BME280;13080;42.608;23.362;2022-11-15T00:27:03;93230.28;;;2.47;99.37
10127;BME280;13080;42.608;23.362;2022-11-15T00:29:30;93227.34;;;2.48;98.80
10127;BME280;13080;42.608;23.362;2022-11-15T00:31:57;93223.97;;;2.43;98.77
10127;BME280;13080;42.608;23.362;2022-11-15T00:34:24;93220.75;;;2.51;98.63
10127;BME280;13080;42.608;23.362;2022-11-15T00:36:50;93219.97;;;2.50;98.59
10127;BME280;13080;42.608;23.362;2022-11-15T00:39:17;93219.69;;;2.52;98.63
10127;BME280;13080;42.608;23.362;2022-11-15T00:41:44;93213.13;;;2.49;98.49
10127;BME280;13080;42.608;23.362;2022-11-15T00:44:12;93214.97;;;2.54;99.11
10127;BME280;13080;42.608;23.362;2022-11-15T00:46:38;93207.88;;;2.49;99.46
10127;BME280;13080;42.608;23.362;2022-11-15T00:49:05;93212.34;;;2.44;99.82
10127;BME280;13080;42.608;23.362;2022-11-15T00:51:32;93211.84;;;2.47;100.00
10127;BME280;13080;42.608;23.362;2022-11-15T00:53:59;93211.31;;;2.40;100.00
10127;BME280;13080;42.608;23.362;2022-11-15T00:56:25;93214.72;;;2.45;100.00
10127;BME280;13080;42.608;23.362;2022-11-15T00:58:52;93214.53;;;2.32;100.00
10127;BME280;13080;42.608;23.362;2022-11-15T01:01:20;93203.22;;;2.21;100.00
10127;BME280;13080;42.608;23.362;2022-11-15T01:03:47;93205.34;;;2.14;100.00
10127;BME280;13080;42.608;23.362;2022-11-15T01:06:14;93207.72;;;2.10;100.00
10127;BME280;13080;42.608;23.362;2022-11-15T01:08:40;93201.66;;;2.15;100.00
10127;BME280;13080;42.608;23.362;2022-11-15T01:11:09;93201.13;;;2.13;100.00
10127;BME280;13080;42.608;23.362;2022-11-15T01:13:37;93196.13;;;2.16;100.00
10127;BME280;13080;42.608;23.362;2022-11-15T01:16:09;93200.31;;;2.27;100.00
10127;BME280;13080;42.608;23.362;2022-11-15T01:18:37;93195.84;;;2.23;100.00
10127;BME280;13080;42.608;23.362;2022-11-15T01:21:06;93193.22;;;2.23;100.00
10127;BME280;13080;42.608;23.362;2022-11-15T01:23:33;93198.28;;;2.09;100.00
10127;BME280;13080;42.608;23.362;2022-11-15T01:26:10;93196.97;;;2.06;100.00
10127;BME280;13080;42.608;23.362;2022-11-15T01:28:39;93195.63;;;2.04;100.00
10127;BME280;13080;42.608;23.362;2022-11-15T01:31:10;93194.38;;;1.91;100.00
10127;BME280;13080;42.608;23.362;2022-11-15T01:33:39;93196.19;;;1.96;100.00
10127;BME280;13080;42.608;23.362;2022-11-15T01:36:07;93195.09;;;2.07;100.00
10127;BME280;13080;42.608;23.362;2022-11-15T01:38:34;93197.22;;;2.05;100.00
10127;BME280;13080;42.608;23.362;2022-11-15T01:41:01;93193.00;;;2.04;100.00
10127;BME280;13080;42.608;23.362;2022-11-15T01:43:30;93195.38;;;2.05;100.00
10127;BME280;13080;42.608;23.362;2022-11-15T01:46:01;93196.94;;;2.01;100.00
10127;BME280;13080;42.608;23.362;2022-11-15T01:48:33;93193.00;;;2.04;100.00
10127;BME280;13080;42.608;23.362;2022-11-15T01:51:06;93195.91;;;2.02;100.00
10127;BME280;13080;42.608;23.362;2022-11-15T01:53:33;93187.25;;;2.02;100.00
10127;BME280;13080;42.608;23.362;2022-11-15T01:56:04;93189.06;;;2.06;100.00
10127;BME280;13080;42.608;23.362;2022-11-15T01:58:32;93181.41;;;2.10;100.00
10127;BME280;13080;42.608;23.362;2022-11-15T02:01:13;93188.78;;;2.08;100.00
10127;BME280;13080;42.608;23.362;2022-11-15T02:03:44;93181.16;;;2.12;99.61
10127;BME280;13080;42.608;23.362;2022-11-15T02:06:16;93190.66;;;2.02;99.75
10127;BME280;13080;42.608;23.362;2022-11-15T02:08:44;93181.47;;;1.90;99.80
10127;BME280;13080;42.608;23.362;2022-11-15T02:11:11;93179.63;;;1.90;100.00
10127;BME280;13080;42.608;23.362;2022-11-15T02:13:37;93180.69;;;1.89;100.00
10127;BME280;13080;42.608;23.362;2022-11-15T02:16:09;93179.38;;;1.81;100.00
10127;BME280;13080;42.608;23.362;2022-11-15T02:18:46;93181.72;;;1.88;100.00
10127;BME280;13080;42.608;23.362;2022-11-15T02:21:21;93176.19;;;1.90;100.00
10127;BME280;13080;42.608;23.362;2022-11-15T02:24:10;93178.56;;;1.91;100.00
10127;BME280;13080;42.608;23.362;2022-11-15T02:27:03;93178.81;;;1.95;100.00
10127;BME280;13080;42.608;23.362;2022-11-15T02:29:50;93176.19;;;1.90;100.00
10127;BME280;13080;42.608;23.362;2022-11-15T02:32:30;93180.19;;;1.82;100.00
10127;BME280;13080;42.608;23.362;2022-11-15T02:35:04;93179.38;;;1.86;100.00
10127;BME280;13080;42.608;23.362;2022-11-15T02:37:39;93173.56;;;1.90;100.00
10127;BME280;13080;42.608;23.362;2022-11-15T02:40:13;93167.75;;;1.93;100.00
10127;BME280;13080;42.608;23.362;2022-11-15T02:42:45;93173.31;;;1.91;100.00
10127;BME280;13080;42.608;23.362;2022-11-15T02:45:36;93171.72;;;1.90;100.00
10127;BME280;13080;42.608;23.362;2022-11-15T02:48:07;93170.13;;;1.94;100.00
10127;BME280;13080;42.608;23.362;2022-11-15T02:50:36;93174.34;;;1.90;100.00
10127;BME280;13080;42.608;23.362;2022-11-15T02:53:03;93179.34;;;1.92;100.00
10127;BME280;13080;42.608;23.362;2022-11-15T02:55:31;93174.63;;;1.89;100.00
10127;BME280;13080;42.608;23.362;2022-11-15T02:58:11;93172.53;;;1.91;100.00
10127;BME280;13080;42.608;23.362;2022-11-15T03:00:48;93181.47;;;1.90;100.00
10127;BME280;13080;42.608;23.362;2022-11-15T03:03:37;93167.81;;;1.82;100.00
10127;BME280;13080;42.608;23.362;2022-11-15T03:06:18;93173.31;;;1.81;100.00
10127;BME280;13080;42.608;23.362;2022-11-15T03:09:02;93172.81;;;1.79;100.00
10127;BME280;13080;42.608;23.362;2022-11-15T03:11:32;93180.97;;;1.77;100.00
10127;BME280;13080;42.608;23.362;2022-11-15T03:14:07;93177.53;;;1.77;100.00
10127;BME280;13080;42.608;23.362;2022-11-15T03:16:39;93169.69;;;1.66;100.00
10127;BME280;13080;42.608;23.362;2022-11-15T03:19:13;93172.56;;;1.70;100.00
10127;BME280;13080;42.608;23.362;2022-11-15T03:21:45;93179.94;;;1.63;100.00
10127;BME280;13080;42.608;23.362;2022-11-15T03:24:14;93167.34;;;1.55;100.00
10127;BME280;13080;42.608;23.362;2022-11-15T03:26:43;93169.97;;;1.55;100.00
10127;BME280;13080;42.608;23.362;2022-11-15T03:29:13;93164.97;;;1.53;100.00
10127;BME280;13080;42.608;23.362;2022-11-15T03:31:44;93164.44;;;1.51;100.00
10127;BME280;13080;42.608;23.362;2022-11-15T03:34:19;93166.53;;;1.49;100.00
10127;BME280;13080;42.608;23.362;2022-11-15T03:36:49;93163.38;;;1.47;100.00
10127;BME280;13080;42.608;23.362;2022-11-15T03:39:18;93164.69;;;1.50;100.00
10127;BME280;13080;42.608;23.362;2022-11-15T03:41:48;93146.84;;;1.41;100.00
10127;BME280;13080;42.608;23.362;2022-11-15T03:44:23;93147.13;;;1.35;100.00
10127;BME280;13080;42.608;23.362;2022-11-15T03:46:58;93143.66;;;1.34;100.00
10127;BME280;13080;42.608;23.362;2022-11-15T03:49:32;93140.78;;;1.36;100.00
10127;BME280;13080;42.608;23.362;2022-11-15T03:52:01;93135.00;;;1.29;100.00
10127;BME280;13080;42.608;23.362;2022-11-15T03:54:29;93130.00;;;1.32;100.00
10127;BME280;13080;42.608;23.362;2022-11-15T03:56:56;93136.31;;;1.41;100.00
10127;BME280;13080;42.608;23.362;2022-11-15T03:59:23;93135.78;;;1.44;100.00
10127;BME280;13080;42.608;23.362;2022-11-15T04:01:49;93130.78;;;1.48;100.00
10127;BME280;13080;42.608;23.362;2022-11-15T04:04:16;93135.25;;;1.42;100.00
10127;BME280;13080;42.608;23.362;2022-11-15T04:06:44;93128.16;;;1.43;100.00
10127;BME280;13080;42.608;23.362;2022-11-15T04:09:11;93127.38;;;1.37;100.00
10127;BME280;13080;42.608;23.362;2022-11-15T04:11:37;93129.47;;;1.40;100.00
10127;BME280;13080;42.608;23.362;2022-11-15T04:14:04;93129.75;;;1.44;100.00
10127;BME280;13080;42.608;23.362;2022-11-15T04:16:31;93128.16;;;1.43;100.00
10127;BME280;13080;42.608;23.362;2022-11-15T04:18:58;93123.41;;;1.45;100.00
10127;BME280;13080;42.608;23.362;2022-11-15T04:21:43;93127.91;;;1.44;100.00
10127;BME280;13080;42.608;23.362;2022-11-15T04:24:27;93119.75;;;1.41;100.00
10127;BME280;13080;42.608;23.362;2022-11-15T04:26:54;93115.56;;;1.40;100.00
10127;BME280;13080;42.608;23.362;2022-11-15T04:29:21;93112.94;;;1.35;100.00
10127;BME280;13080;42.608;23.362;2022-11-15T04:32:04;93109.78;;;1.33;100.00
10127;BME280;13080;42.608;23.362;2022-11-15T04:34:31;93108.72;;;1.34;100.00
10127;BME280;13080;42.608;23.362;2022-11-15T04:36:59;93117.94;;;1.31;100.00
10127;BME280;13080;42.608;23.362;2022-11-15T04:39:39;93114.00;;;1.29;100.00
10127;BME280;13080;42.608;23.362;2022-11-15T04:42:06;93118.97;;;1.35;100.00
10127;BME280;13080;42.608;23.362;2022-11-15T04:44:32;93115.81;;;1.33;100.00
10127;BME280;13080;42.608;23.362;2022-11-15T04:46:59;93117.66;;;1.33;100.00
10127;BME280;13080;42.608;23.362;2022-11-15T04:49:26;93118.47;;;1.28;100.00
10127;BME280;13080;42.608;23.362;2022-11-15T04:51:53;93117.66;;;1.22;100.00
10127;BME280;13080;42.608;23.362;2022-11-15T04:54:21;93111.63;;;1.07;100.00
10127;BME280;13080;42.608;23.362;2022-11-15T04:56:48;93117.41;;;1.09;100.00
10127;BME280;13080;42.608;23.362;2022-11-15T04:59:15;93110.31;;;1.04;100.00
10127;BME280;13080;42.608;23.362;2022-11-15T05:01:42;93114.81;;;1.03;100.00
10127;BME280;13080;42.608;23.362;2022-11-15T05:04:08;93112.69;;;0.95;100.00
10127;BME280;13080;42.608;23.362;2022-11-15T05:06:48;93109.00;;;0.91;100.00
10127;BME280;13080;42.608;23.362;2022-11-15T05:09:15;93112.69;;;0.80;100.00
10127;BME280;13080;42.608;23.362;2022-11-15T05:11:44;93118.19;;;0.78;100.00
10127;BME280;13080;42.608;23.362;2022-11-15T05:14:10;93118.97;;;0.64;100.00
10127;BME280;13080;42.608;23.362;2022-11-15T05:16:38;93118.72;;;0.65;100.00
10127;BME280;13080;42.608;23.362;2022-11-15T05:19:04;93118.97;;;0.58;100.00
10127;BME280;13080;42.608;23.362;2022-11-15T05:21:32;93117.41;;;0.68;100.00
10127;BME280;13080;42.608;23.362;2022-11-15T05:23:59;93127.63;;;0.64;100.00
10127;BME280;13080;42.608;23.362;2022-11-15T05:26:26;93123.94;;;0.60;100.00
10127;BME280;13080;42.608;23.362;2022-11-15T05:28:55;93131.00;;;0.49;100.00
10127;BME280;13080;42.608;23.362;2022-11-15T05:31:23;93125.19;;;0.27;100.00
10127;BME280;13080;42.608;23.362;2022-11-15T05:33:51;93124.94;;;0.33;100.00
10127;BME280;13080;42.608;23.362;2022-11-15T05:36:21;93127.56;;;0.33;100.00
10127;BME280;13080;42.608;23.362;2022-11-15T05:38:51;93121.00;;;0.31;100.00
10127;BME280;13080;42.608;23.362;2022-11-15T05:41:20;93122.59;;;0.37;100.00
10127;BME280;13080;42.608;23.362;2022-11-15T05:43:49;93123.38;;;0.37;100.00
10127;BME280;13080;42.608;23.362;2022-11-15T05:46:18;93123.91;;;0.39;100.00
10127;BME280;13080;42.608;23.362;2022-11-15T05:48:46;93117.34;;;0.37;100.00
10127;BME280;13080;42.608;23.362;2022-11-15T05:51:17;93120.50;;;0.34;100.00
10127;BME280;13080;42.608;23.362;2022-11-15T05:53:46;93121.50;;;0.17;100.00
10127;BME280;13080;42.608;23.362;2022-11-15T05:56:13;93124.88;;;0.08;100.00
10127;BME280;13080;42.608;23.362;2022-11-15T05:58:41;93114.16;;;0.14;100.00
10127;BME280;13080;42.608;23.362;2022-11-15T06:01:08;93114.94;;;0.20;100.00
10127;BME280;13080;42.608;23.362;2022-11-15T06:03:36;93117.06;;;0.28;100.00
10127;BME280;13080;42.608;23.362;2022-11-15T06:06:03;93116.03;;;0.34;100.00
10127;BME280;13080;42.608;23.362;2022-11-15T06:08:30;93108.69;;;0.36;100.00
10127;BME280;13080;42.608;23.362;2022-11-15T06:11:03;93114.75;;;0.47;100.00
10127;BME280;13080;42.608;23.362;2022-11-15T06:13:30;93123.16;;;0.54;100.00
10127;BME280;13080;42.608;23.362;2022-11-15T06:15:57;93129.75;;;0.72;100.00
10127;BME280;13080;42.608;23.362;2022-11-15T06:18:24;93119.78;;;0.74;100.00
10127;BME280;13080;42.608;23.362;2022-11-15T06:20:52;93132.91;;;0.74;100.00
10127;BME280;13080;42.608;23.362;2022-11-15T06:23:19;93137.09;;;0.80;100.00
10127;BME280;13080;42.608;23.362;2022-11-15T06:25:46;93134.22;;;1.02;100.00
10127;BME280;13080;42.608;23.362;2022-11-15T06:28:12;93131.34;;;0.83;100.00
10127;BME280;13080;42.608;23.362;2022-11-15T06:30:39;93130.00;;;0.71;100.00
10127;BME280;13080;42.608;23.362;2022-11-15T06:33:06;93131.06;;;0.75;100.00
10127;BME280;13080;42.608;23.362;2022-11-15T06:35:34;93126.09;;;0.89;100.00
10127;BME280;13080;42.608;23.362;2022-11-15T06:38:04;93116.91;;;0.81;100.00
10127;BME280;13080;42.608;23.362;2022-11-15T06:40:33;93125.00;;;0.64;100.00
10127;BME280;13080;42.608;23.362;2022-11-15T06:43:01;93126.88;;;0.89;100.00
10127;BME280;13080;42.608;23.362;2022-11-15T06:45:28;93122.41;;;0.95;100.00
10127;BME280;13080;42.608;23.362;2022-11-15T06:47:55;93122.41;;;1.00;100.00
10127;BME280;13080;42.608;23.362;2022-11-15T06:50:21;93127.16;;;1.08;100.00
10127;BME280;13080;42.608;23.362;2022-11-15T06:52:48;93121.38;;;1.21;100.00
10127;BME280;13080;42.608;23.362;2022-11-15T06:55:16;93124.50;;;1.34;100.00
10127;BME280;13080;42.608;23.362;2022-11-15T06:57:47;93118.16;;;1.55;100.00
10127;BME280;13080;42.608;23.362;2022-11-15T07:00:15;93124.16;;;1.71;100.00
10127;BME280;13080;42.608;23.362;2022-11-15T07:02:42;93118.66;;;1.62;100.00
10127;BME280;13080;42.608;23.362;2022-11-15T07:05:10;93126.28;;;1.64;100.00
10127;BME280;13080;42.608;23.362;2022-11-15T07:07:37;93120.47;;;1.72;100.00
10127;BME280;13080;42.608;23.362;2022-11-15T07:10:04;93127.78;;;1.85;100.00
10127;BME280;13080;42.608;23.362;2022-11-15T07:12:33;93120.22;;;1.74;100.00
10127;BME280;13080;42.608;23.362;2022-11-15T07:14:59;93119.94;;;1.75;100.00
10127;BME280;13080;42.608;23.362;2022-11-15T07:17:26;93111.78;;;1.72;100.00
10127;BME280;13080;42.608;23.362;2022-11-15T07:19:53;93109.66;;;1.84;100.00
10127;BME280;13080;42.608;23.362;2022-11-15T07:22:19;93118.25;;;2.05;100.00
10127;BME280;13080;42.608;23.362;2022-11-15T07:24:46;93106.09;;;2.19;100.00
10127;BME280;13080;42.608;23.362;2022-11-15T07:27:13;93111.63;;;2.18;100.00
10127;BME280;13080;42.608;23.362;2022-11-15T07:29:41;93111.09;;;2.21;100.00
10127;BME280;13080;42.608;23.362;2022-11-15T07:32:09;93112.56;;;2.37;100.00
10127;BME280;13080;42.608;23.362;2022-11-15T07:34:36;93107.22;;;2.53;100.00
10127;BME280;13080;42.608;23.362;2022-11-15T07:37:02;93109.28;;;2.61;100.00
10127;BME280;13080;42.608;23.362;2022-11-15T07:39:29;93107.50;;;2.51;100.00
10127;BME280;13080;42.608;23.362;2022-11-15T07:41:56;93110.59;;;2.63;100.00
10127;BME280;13080;42.608;23.362;2022-11-15T07:44:36;93107.25;;;2.87;100.00
10127;BME280;13080;42.608;23.362;2022-11-15T07:47:04;93113.13;;;3.13;100.00
10127;BME280;13080;42.608;23.362;2022-11-15T07:49:31;93108.75;;;2.98;100.00
10127;BME280;13080;42.608;23.362;2022-11-15T07:51:58;93109.00;;;3.02;100.00
10127;BME280;13080;42.608;23.362;2022-11-15T07:54:25;93117.50;;;3.28;100.00
10127;BME280;13080;42.608;23.362;2022-11-15T07:56:51;93111.41;;;3.32;100.00
10127;BME280;13080;42.608;23.362;2022-11-15T07:59:18;93116.59;;;3.08;100.00
10127;BME280;13080;42.608;23.362;2022-11-15T08:01:45;93110.88;;;3.30;100.00
10127;BME280;13080;42.608;23.362;2022-11-15T08:04:14;93112.31;;;3.18;100.00
10127;BME280;13080;42.608;23.362;2022-11-15T08:06:40;93110.22;;;3.15;100.00
10127;BME280;13080;42.608;23.362;2022-11-15T08:09:07;93104.97;;;3.15;100.00
10127;BME280;13080;42.608;23.362;2022-11-15T08:11:34;93100.47;;;3.15;100.00
10127;BME280;13080;42.608;23.362;2022-11-15T08:14:00;93102.47;;;3.28;100.00
10127;BME280;13080;42.608;23.362;2022-11-15T08:16:27;93093.66;;;3.38;100.00
10127;BME280;13080;42.608;23.362;2022-11-15T08:18:54;93101.69;;;3.52;100.00
10127;BME280;13080;42.608;23.362;2022-11-15T08:21:22;93109.72;;;3.42;100.00
10127;BME280;13080;42.608;23.362;2022-11-15T08:23:50;93103.09;;;3.44;100.00
10127;BME280;13080;42.608;23.362;2022-11-15T08:26:17;93106.22;;;3.75;100.00
10127;BME280;13080;42.608;23.362;2022-11-15T08:28:44;93111.09;;;3.92;100.00
10127;BME280;13080;42.608;23.362;2022-11-15T08:31:14;93115.66;;;4.06;100.00
10127;BME280;13080;42.608;23.362;2022-11-15T08:33:42;93111.09;;;3.92;100.00
10127;BME280;13080;42.608;23.362;2022-11-15T08:36:12;93098.53;;;3.55;100.00
10127;BME280;13080;42.608;23.362;2022-11-15T08:38:40;93109.94;;;3.74;100.00
10127;BME280;13080;42.608;23.362;2022-11-15T08:41:12;93100.50;;;3.68;100.00
10127;BME280;13080;42.608;23.362;2022-11-15T08:43:40;93101.22;;;3.74;100.00
10127;BME280;13080;42.608;23.362;2022-11-15T08:46:08;93094.16;;;3.69;100.00
10127;BME280;13080;42.608;23.362;2022-11-15T08:48:38;93091.50;;;3.69;100.00
10127;BME280;13080;42.608;23.362;2022-11-15T08:51:05;93090.16;;;3.96;100.00
10127;BME280;13080;42.608;23.362;2022-11-15T08:53:32;93091.53;;;3.93;100.00
10127;BME280;13080;42.608;23.362;2022-11-15T08:56:01;93083.38;;;3.90;100.00
10127;BME280;13080;42.608;23.362;2022-11-15T08:58:28;93085.91;;;4.00;100.00
10127;BME280;13080;42.608;23.362;2022-11-15T09:00:55;93088.78;;;4.04;100.00
10127;BME280;13080;42.608;23.362;2022-11-15T09:03:22;93078.72;;;4.25;100.00
10127;BME280;13080;42.608;23.362;2022-11-15T09:05:54;93073.81;;;4.37;100.00
10127;BME280;13080;42.608;23.362;2022-11-15T09:08:21;93072.53;;;4.34;100.00
10127;BME280;13080;42.608;23.362;2022-11-15T09:10:47;93061.53;;;4.27;100.00
10127;BME280;13080;42.608;23.362;2022-11-15T09:13:15;93060.03;;;4.40;100.00
10127;BME280;13080;42.608;23.362;2022-11-15T09:15:42;93057.31;;;4.26;100.00
10127;BME280;13080;42.608;23.362;2022-11-15T09:18:09;93052.31;;;4.25;100.00
10127;BME280;13080;42.608;23.362;2022-11-15T09:20:36;93053.53;;;4.70;100.00
10127;BME280;13080;42.608;23.362;2022-11-15T09:23:03;93046.00;;;4.77;100.00
10127;BME280;13080;42.608;23.362;2022-11-15T09:25:31;93052.66;;;4.94;100.00
10127;BME280;13080;42.608;23.362;2022-11-15T09:27:58;93049.97;;;4.80;100.00
10127;BME280;13080;42.608;23.362;2022-11-15T09:30:26;93050.00;;;4.94;100.00
10127;BME280;13080;42.608;23.362;2022-11-15T09:32:53;93042.31;;;5.11;100.00
10127;BME280;13080;42.608;23.362;2022-11-15T09:35:19;93039.69;;;5.11;99.97
10127;BME280;13080;42.608;23.362;2022-11-15T09:37:46;93042.41;;;5.20;99.88
10127;BME280;13080;42.608;23.362;2022-11-15T09:40:14;93043.03;;;5.31;99.09
10127;BME280;13080;42.608;23.362;2022-11-15T09:43:23;93035.84;;;5.17;98.96
10127;BME280;13080;42.608;23.362;2022-11-15T09:46:04;93031.41;;;5.46;97.04
10127;BME280;13080;42.608;23.362;2022-11-15T09:48:46;93023.75;;;5.30;97.23
10127;BME280;13080;42.608;23.362;2022-11-15T09:51:23;93017.06;;;5.33;98.29
10127;BME280;13080;42.608;23.362;2022-11-15T09:53:56;93022.97;;;5.44;98.14
10127;BME280;13080;42.608;23.362;2022-11-15T09:56:26;93017.09;;;5.47;97.17
10127;BME280;13080;42.608;23.362;2022-11-15T09:59:01;93013.78;;;5.55;97.17
10127;BME280;13080;42.608;23.362;2022-11-15T10:01:45;93016.13;;;5.56;97.60
10127;BME280;13080;42.608;23.362;2022-11-15T10:04:14;93004.66;;;5.47;98.95
10127;BME280;13080;42.608;23.362;2022-11-15T10:06:46;93018.28;;;5.82;94.80
10127;BME280;13080;42.608;23.362;2022-11-15T10:09:20;93003.16;;;5.82;94.40
10127;BME280;13080;42.608;23.362;2022-11-15T10:11:48;93003.78;;;5.66;94.70
10127;BME280;13080;42.608;23.362;2022-11-15T10:14:18;93001.63;;;5.68;95.26
10127;BME280;13080;42.608;23.362;2022-11-15T10:17:09;92991.22;;;5.71;96.26
10127;BME280;13080;42.608;23.362;2022-11-15T10:19:50;92984.06;;;5.58;96.32
10127;BME280;13080;42.608;23.362;2022-11-15T10:22:26;92986.31;;;5.51;97.57
10127;BME280;13080;42.608;23.362;2022-11-15T10:25:13;92986.59;;;5.49;97.46
10127;BME280;13080;42.608;23.362;2022-11-15T10:27:44;92988.28;;;5.45;98.35
10127;BME280;13080;42.608;23.362;2022-11-15T10:30:14;92979.56;;;5.58;97.61
10127;BME280;13080;42.608;23.362;2022-11-15T10:32:44;92987.78;;;5.71;97.40
10127;BME280;13080;42.608;23.362;2022-11-15T10:35:20;92978.09;;;5.66;97.05
10127;BME280;13080;42.608;23.362;2022-11-15T10:37:48;92971.91;;;5.57;96.37
10127;BME280;13080;42.608;23.362;2022-11-15T10:40:19;92960.31;;;5.67;96.71
10127;BME280;13080;42.608;23.362;2022-11-15T10:42:46;92956.63;;;5.68;96.54
10127;BME280;13080;42.608;23.362;2022-11-15T10:45:24;92947.38;;;5.79;95.93
10127;BME280;13080;42.608;23.362;2022-11-15T10:47:53;92950.28;;;6.05;94.30
10127;BME280;13080;42.608;23.362;2022-11-15T10:50:31;92945.88;;;6.00;94.14
10127;BME280;13080;42.608;23.362;2022-11-15T10:52:59;92941.84;;;6.03;94.01
10127;BME280;13080;42.608;23.362;2022-11-15T10:55:29;92940.00;;;6.03;93.94
10127;BME280;13080;42.608;23.362;2022-11-15T10:58:02;92935.44;;;6.18;93.16
10127;BME280;13080;42.608;23.362;2022-11-15T11:00:33;92929.44;;;6.26;91.61
10127;BME280;13080;42.608;23.362;2022-11-15T11:03:03;92930.50;;;6.25;92.29
10127;BME280;13080;42.608;23.362;2022-11-15T11:05:34;92925.47;;;6.15;91.94
10127;BME280;13080;42.608;23.362;2022-11-15T11:08:04;92913.84;;;6.24;92.11
10127;BME280;13080;42.608;23.362;2022-11-15T11:10:31;92914.03;;;6.28;92.45
10127;BME280;13080;42.608;23.362;2022-11-15T11:13:13;92909.22;;;6.30;91.78
10127;BME280;13080;42.608;23.362;2022-11-15T11:15:43;92905.13;;;6.24;92.68
10127;BME280;13080;42.608;23.362;2022-11-15T11:18:15;92904.44;;;6.41;91.78
10127;BME280;13080;42.608;23.362;2022-11-15T11:20:50;92898.34;;;6.40;91.18
10127;BME280;13080;42.608;23.362;2022-11-15T11:23:38;92901.44;;;6.56;90.59
10127;BME280;13080;42.608;23.362;2022-11-15T11:26:18;92891.22;;;6.72;90.04
10127;BME280;13080;42.608;23.362;2022-11-15T11:28:55;92886.25;;;6.71;89.29
10127;BME280;13080;42.608;23.362;2022-11-15T11:31:35;92887.00;;;6.71;89.77
10127;BME280;13080;42.608;23.362;2022-11-15T11:34:15;92883.53;;;6.62;90.13
10127;BME280;13080;42.608;23.362;2022-11-15T11:36:48;92874.97;;;6.65;90.32
10127;BME280;13080;42.608;23.362;2022-11-15T11:39:25;92867.53;;;6.76;90.27
10127;BME280;13080;42.608;23.362;2022-11-15T11:41:59;92867.53;;;6.76;90.01
10127;BME280;13080;42.608;23.362;2022-11-15T11:44:36;92854.91;;;6.81;89.89
10127;BME280;13080;42.608;23.362;2022-11-15T11:47:09;92851.34;;;6.86;90.20
10127;BME280;13080;42.608;23.362;2022-11-15T11:49:43;92854.00;;;6.86;89.25
10127;BME280;13080;42.608;23.362;2022-11-15T11:52:15;92852.75;;;6.83;90.06
10127;BME280;13080;42.608;23.362;2022-11-15T11:54:52;92849.84;;;6.94;89.19
10127;BME280;13080;42.608;23.362;2022-11-15T11:57:28;92853.59;;;7.01;89.83
10127;BME280;13080;42.608;23.362;2022-11-15T12:00:03;92846.44;;;7.11;88.24
10127;BME280;13080;42.608;23.362;2022-11-15T12:02:33;92842.53;;;7.08;88.39
10127;BME280;13080;42.608;23.362;2022-11-15T12:05:10;92835.38;;;7.17;87.79
10127;BME280;13080;42.608;23.362;2022-11-15T12:07:40;92836.06;;;7.32;87.24
10127;BME280;13080;42.608;23.362;2022-11-15T12:10:19;92829.63;;;7.24;87.93
10127;BME280;13080;42.608;23.362;2022-11-15T12:12:53;92824.47;;;7.19;87.83
10127;BME280;13080;42.608;23.362;2022-11-15T12:15:24;92817.75;;;7.21;87.24
10127;BME280;13080;42.608;23.362;2022-11-15T12:17:52;92819.97;;;7.28;87.57
10127;BME280;13080;42.608;23.362;2022-11-15T12:20:25;92810.28;;;7.23;88.49
10127;BME280;13080;42.608;23.362;2022-11-15T12:22:56;92806.09;;;7.40;86.81
10127;BME280;13080;42.608;23.362;2022-11-15T12:25:28;92805.00;;;7.32;87.70
10127;BME280;13080;42.608;23.362;2022-11-15T12:28:00;92809.84;;;7.39;86.54
10127;BME280;13080;42.608;23.362;2022-11-15T12:30:40;92800.63;;;7.36;87.70
10127;BME280;13080;42.608;23.362;2022-11-15T12:33:32;92802.78;;;7.25;88.79
10127;BME280;13080;42.608;23.362;2022-11-15T12:36:03;92796.06;;;7.28;88.33
10127;BME280;13080;42.608;23.362;2022-11-15T12:38:53;92795.31;;;7.27;88.16
10127;BME280;13080;42.608;23.362;2022-11-15T12:41:21;92789.22;;;7.27;88.13
10127;BME280;13080;42.608;23.362;2022-11-15T12:43:49;92786.41;;;7.23;88.44
10127;BME280;13080;42.608;23.362;2022-11-15T12:49:09;92778.16;;;7.42;87.85
10127;BME280;13080;42.608;23.362;2022-11-15T12:52:05;92783.63;;;7.55;86.81
10127;BME280;13080;42.608;23.362;2022-11-15T12:55:00;92779.56;;;7.48;87.01
10127;BME280;13080;42.608;23.362;2022-11-15T12:57:47;92776.13;;;7.48;87.91
10127;BME280;13080;42.608;23.362;2022-11-15T13:00:44;92773.63;;;7.52;87.48
10127;BME280;13080;42.608;23.362;2022-11-15T13:03:33;92775.19;;;7.53;87.96
10127;BME280;13080;42.608;23.362;2022-11-15T13:06:06;92774.88;;;7.54;88.53
10127;BME280;13080;42.608;23.362;2022-11-15T13:08:48;92768.78;;;7.54;88.92
10127;BME280;13080;42.608;23.362;2022-11-15T13:11:43;92769.56;;;7.54;89.18
10127;BME280;13080;42.608;23.362;2022-11-15T13:14:40;92761.91;;;7.53;89.45